Time,TemperatureF,DewpointF,PressureIn,WindDirection,WindDirectionDegrees,WindSpeedMPH,WindSpeedGustMPH,Humidity,HourlyPrecipIn,Conditions,Clouds,dailyrainin,SoftwareType,DateUTC
2013-02-02 00:00:00,18.3,0.6,29.71,WSW,248,8.7,8.7,45,0.00,,,0.00,VWS V14.01,2013-02-02 05:00:00,
2013-02-02 00:01:00,18.3,0.6,29.74,WNW,292,10.3,10.3,45,0.00,,,0.00,VWS V14.01,2013-02-02 05:01:00,
2013-02-02 00:06:00,18.3,0.6,29.74,West,270,8.5,8.5,45,0.00,,,0.00,VWS V14.01,2013-02-02 05:06:00,
2013-02-02 00:11:00,18.3,1.0,29.74,West,270,6.5,6.5,46,0.00,,,0.00,VWS V14.01,2013-02-02 05:11:00,
2013-02-02 00:16:00,18.3,1.0,29.74,West,270,10.5,10.5,46,0.00,,,0.00,VWS V14.01,2013-02-02 05:16:00,
2013-02-02 00:21:00,18.1,0.9,29.74,WNW,292,6.5,6.5,46,0.00,,,0.00,VWS V14.01,2013-02-02 05:21:00,
2013-02-02 00:26:00,18.1,1.3,29.74,West,270,12.3,12.3,47,0.00,,,0.00,VWS V14.01,2013-02-02 05:26:00,
2013-02-02 00:31:00,18.1,1.3,29.74,WNW,292,4.9,4.9,47,0.00,,,0.00,VWS V14.01,2013-02-02 05:31:00,
2013-02-02 00:36:00,18.1,1.3,29.74,WNW,292,7.2,7.2,47,0.00,,,0.00,VWS V14.01,2013-02-02 05:36:00,
2013-02-02 00:41:00,17.8,1.4,29.74,WNW,292,7.6,7.6,48,0.00,,,0.00,VWS V14.01,2013-02-02 05:41:00,
2013-02-02 00:46:00,18.0,1.6,29.74,WSW,248,10.7,10.7,48,0.00,,,0.00,VWS V14.01,2013-02-02 05:46:00,
2013-02-02 00:51:00,17.8,1.4,29.74,West,270,4.0,4.0,48,0.00,,,0.00,VWS V14.01,2013-02-02 05:51:00,
2013-02-02 00:56:00,17.8,1.4,29.74,WSW,248,13.0,13.0,48,0.00,,,0.00,VWS V14.01,2013-02-02 05:56:00,
2013-02-02 01:01:00,17.6,1.3,29.74,WNW,292,5.6,5.6,48,0.00,,,0.00,VWS V14.01,2013-02-02 06:01:00,
2013-02-02 01:06:00,17.6,1.3,29.74,West,270,8.1,8.1,48,0.00,,,0.00,VWS V14.01,2013-02-02 06:06:00,
2013-02-02 01:11:00,17.6,1.7,29.74,West,270,6.3,6.3,49,0.00,,,0.00,VWS V14.01,2013-02-02 06:11:00,
2013-02-02 01:17:00,17.4,1.5,29.71,West,270,7.6,7.6,49,0.00,,,0.00,VWS V14.01,2013-02-02 06:17:00,
2013-02-02 01:22:00,17.6,1.7,29.71,West,270,3.4,3.4,49,0.00,,,0.00,VWS V14.01,2013-02-02 06:22:00,
2013-02-02 01:27:00,17.4,1.5,29.71,West,270,7.4,7.4,49,0.00,,,0.00,VWS V14.01,2013-02-02 06:27:00,
2013-02-02 01:32:00,17.6,1.7,29.74,WSW,248,4.3,4.3,49,0.00,,,0.00,VWS V14.01,2013-02-02 06:32:00,
2013-02-02 01:37:00,17.4,2.0,29.74,SW,225,3.1,3.1,50,0.00,,,0.00,VWS V14.01,2013-02-02 06:37:00,
2013-02-02 01:42:00,17.4,1.5,29.74,WSW,248,5.4,5.4,49,0.00,,,0.00,VWS V14.01,2013-02-02 06:42:00,
2013-02-02 01:47:00,17.2,1.4,29.74,SW,225,4.7,4.7,49,0.00,,,0.00,VWS V14.01,2013-02-02 06:47:00,
2013-02-02 01:52:00,17.1,1.6,29.74,WSW,248,5.6,5.6,50,0.00,,,0.00,VWS V14.01,2013-02-02 06:52:00,
2013-02-02 01:57:00,17.1,1.6,29.74,WSW,248,4.3,4.3,50,0.00,,,0.00,VWS V14.01,2013-02-02 06:57:00,
2013-02-02 02:02:00,16.9,1.0,29.76,West,270,5.8,5.8,49,0.00,,,0.00,VWS V14.01,2013-02-02 07:02:00,
2013-02-02 02:07:00,16.9,1.0,29.76,WSW,248,5.6,5.6,49,0.00,,,0.00,VWS V14.01,2013-02-02 07:07:00,
2013-02-02 02:12:00,16.9,1.0,29.76,WNW,292,8.7,8.7,49,0.00,,,0.00,VWS V14.01,2013-02-02 07:12:00,
2013-02-02 02:18:00,16.9,1.0,29.76,WSW,248,7.6,7.6,49,0.00,,,0.00,VWS V14.01,2013-02-02 07:18:00,
2013-02-02 02:23:00,16.7,0.4,29.76,West,270,9.2,9.2,48,0.00,,,0.00,VWS V14.01,2013-02-02 07:23:00,
2013-02-02 02:28:00,16.7,0.4,29.76,WSW,248,8.1,8.1,48,0.00,,,0.00,VWS V14.01,2013-02-02 07:28:00,
2013-02-02 02:33:00,16.7,0.4,29.74,WSW,248,9.8,9.8,48,0.00,,,0.00,VWS V14.01,2013-02-02 07:33:00,
2013-02-02 02:38:00,16.5,0.3,29.74,WNW,292,6.0,6.0,48,0.00,,,0.00,VWS V14.01,2013-02-02 07:38:00,
2013-02-02 02:43:00,16.5,0.3,29.74,West,270,7.6,7.6,48,0.00,,,0.00,VWS V14.01,2013-02-02 07:43:00,
2013-02-02 02:48:00,16.5,0.3,29.76,WSW,248,9.8,9.8,48,0.00,,,0.00,VWS V14.01,2013-02-02 07:48:00,
2013-02-02 02:53:00,16.2,-0.1,29.76,WNW,292,7.6,7.6,48,0.00,,,0.00,VWS V14.01,2013-02-02 07:53:00,
2013-02-02 02:58:00,16.2,-0.1,29.76,WSW,248,7.6,7.6,48,0.00,,,0.00,VWS V14.01,2013-02-02 07:58:00,
2013-02-02 03:05:00,16.2,-0.5,29.74,WSW,248,7.8,7.8,47,0.00,,,0.00,VWS V14.01,2013-02-02 08:05:00,
2013-02-02 03:11:00,16.2,-0.1,29.74,NW,315,7.6,7.6,48,0.00,,,0.00,VWS V14.01,2013-02-02 08:11:00,
2013-02-02 03:16:00,16.0,-0.2,29.74,WSW,248,7.6,7.6,48,0.00,,,0.00,VWS V14.01,2013-02-02 08:16:00,
2013-02-02 03:21:00,16.0,-0.2,29.76,WNW,292,8.5,8.5,48,0.00,,,0.00,VWS V14.01,2013-02-02 08:21:00,
2013-02-02 03:26:00,16.0,-0.2,29.76,West,270,9.8,9.8,48,0.00,,,0.00,VWS V14.01,2013-02-02 08:26:00,
2013-02-02 03:31:00,16.0,-0.7,29.76,West,270,8.5,8.5,47,0.00,,,0.00,VWS V14.01,2013-02-02 08:31:00,
2013-02-02 03:36:00,15.8,-0.4,29.76,WNW,292,7.4,7.4,48,0.00,,,0.00,VWS V14.01,2013-02-02 08:36:00,
2013-02-02 03:41:00,16.0,-0.7,29.76,West,270,6.3,6.3,47,0.00,,,0.00,VWS V14.01,2013-02-02 08:41:00,
2013-02-02 03:46:00,15.8,-0.9,29.74,SW,225,3.1,3.1,47,0.00,,,0.00,VWS V14.01,2013-02-02 08:46:00,
2013-02-02 03:51:00,16.0,-0.7,29.74,West,270,5.8,5.8,47,0.00,,,0.00,VWS V14.01,2013-02-02 08:51:00,
2013-02-02 03:56:00,15.8,-0.4,29.74,SW,225,4.3,4.3,48,0.00,,,0.00,VWS V14.01,2013-02-02 08:56:00,
2013-02-02 04:01:00,15.4,-0.7,29.74,West,270,7.2,7.2,48,0.00,,,0.00,VWS V14.01,2013-02-02 09:01:00,
2013-02-02 04:06:00,15.6,-0.6,29.74,WSW,248,5.4,5.4,48,0.00,,,0.00,VWS V14.01,2013-02-02 09:06:00,
2013-02-02 04:11:00,15.4,-0.7,29.74,WSW,248,5.4,5.4,48,0.00,,,0.00,VWS V14.01,2013-02-02 09:11:00,
2013-02-02 04:16:00,15.6,-0.6,29.74,WSW,248,5.4,5.4,48,0.00,,,0.00,VWS V14.01,2013-02-02 09:16:00,
2013-02-02 04:21:00,15.6,-0.6,29.74,SSW,202,4.7,4.7,48,0.00,,,0.00,VWS V14.01,2013-02-02 09:21:00,
2013-02-02 04:26:00,15.6,-0.6,29.74,SW,225,2.0,2.0,48,0.00,,,0.00,VWS V14.01,2013-02-02 09:26:00,
2013-02-02 04:31:00,15.6,-0.6,29.74,WNW,292,4.3,4.3,48,0.00,,,0.00,VWS V14.01,2013-02-02 09:31:00,
2013-02-02 04:37:00,15.4,-0.7,29.74,WSW,248,4.5,4.5,48,0.00,,,0.00,VWS V14.01,2013-02-02 09:37:00,
2013-02-02 04:42:00,15.6,-0.6,29.74,WSW,248,3.1,3.1,48,0.00,,,0.00,VWS V14.01,2013-02-02 09:42:00,
2013-02-02 04:47:00,15.4,-0.7,29.74,SW,225,4.3,4.3,48,0.00,,,0.00,VWS V14.01,2013-02-02 09:47:00,
2013-02-02 04:52:00,15.4,-0.7,29.74,WSW,248,2.7,2.7,48,0.00,,,0.00,VWS V14.01,2013-02-02 09:52:00,
2013-02-02 04:57:00,15.3,-0.9,29.74,West,270,6.0,6.0,48,0.00,,,0.00,VWS V14.01,2013-02-02 09:57:00,
2013-02-02 05:02:00,15.3,-0.9,29.74,WSW,248,9.6,9.6,48,0.00,,,0.00,VWS V14.01,2013-02-02 10:02:00,
2013-02-02 05:07:00,15.1,-1.1,29.74,West,270,6.7,6.7,48,0.00,,,0.00,VWS V14.01,2013-02-02 10:07:00,
2013-02-02 05:12:00,15.3,-0.9,29.74,NW,315,2.9,2.9,48,0.00,,,0.00,VWS V14.01,2013-02-02 10:12:00,
2013-02-02 05:17:00,15.3,-0.9,29.71,West,270,3.8,3.8,48,0.00,,,0.00,VWS V14.01,2013-02-02 10:17:00,
2013-02-02 05:22:00,15.3,-0.9,29.71,West,270,7.8,7.8,48,0.00,,,0.00,VWS V14.01,2013-02-02 10:22:00,
2013-02-02 05:27:00,15.1,-1.1,29.71,WSW,248,6.0,6.0,48,0.00,,,0.00,VWS V14.01,2013-02-02 10:27:00,
2013-02-02 05:32:00,15.1,-1.1,29.74,WSW,248,4.0,4.0,48,0.00,,,0.00,VWS V14.01,2013-02-02 10:32:00,
2013-02-02 05:37:00,15.1,-1.1,29.74,West,270,7.8,7.8,48,0.00,,,0.00,VWS V14.01,2013-02-02 10:37:00,
2013-02-02 05:42:00,15.1,-1.1,29.74,West,270,7.6,7.6,48,0.00,,,0.00,VWS V14.01,2013-02-02 10:42:00,
2013-02-02 05:47:00,15.1,-1.1,29.74,WSW,248,3.1,3.1,48,0.00,,,0.00,VWS V14.01,2013-02-02 10:47:00,
2013-02-02 05:52:00,15.1,-1.1,29.74,West,270,7.8,7.8,48,0.00,,,0.00,VWS V14.01,2013-02-02 10:52:00,
2013-02-02 05:57:00,15.1,-1.1,29.74,WSW,248,7.6,7.6,48,0.00,,,0.00,VWS V14.01,2013-02-02 10:57:00,
2013-02-02 06:02:00,14.9,-1.2,29.74,WSW,248,7.4,7.4,48,0.00,,,0.00,VWS V14.01,2013-02-02 11:02:00,
2013-02-02 06:07:00,15.1,-1.1,29.74,West,270,4.3,4.3,48,0.00,,,0.00,VWS V14.01,2013-02-02 11:07:00,
2013-02-02 06:13:00,15.1,-1.1,29.74,WSW,248,3.1,3.1,48,0.00,,,0.00,VWS V14.01,2013-02-02 11:13:00,
2013-02-02 06:18:00,15.1,-1.1,29.74,WSW,248,3.6,3.6,48,0.00,,,0.00,VWS V14.01,2013-02-02 11:18:00,
2013-02-02 06:23:00,15.1,-1.1,29.74,WSW,248,1.3,1.3,48,0.00,,,0.00,VWS V14.01,2013-02-02 11:23:00,
2013-02-02 06:28:00,15.1,-0.6,29.74,SSW,202,2.9,2.9,49,0.00,,,0.00,VWS V14.01,2013-02-02 11:28:00,
2013-02-02 06:33:00,14.9,-0.8,29.74,SSW,202,2.0,2.0,49,0.00,,,0.00,VWS V14.01,2013-02-02 11:33:00,
2013-02-02 06:38:00,14.9,-0.8,29.74,WSW,248,0.0,0.0,49,0.00,,,0.00,VWS V14.01,2013-02-02 11:38:00,
2013-02-02 06:43:00,15.1,-0.6,29.74,WNW,292,2.7,2.7,49,0.00,,,0.00,VWS V14.01,2013-02-02 11:43:00,
2013-02-02 06:48:00,14.9,-0.8,29.74,WSW,248,2.5,2.5,49,0.00,,,0.00,VWS V14.01,2013-02-02 11:48:00,
2013-02-02 06:53:00,14.9,-0.8,29.74,West,270,1.6,1.6,49,0.00,,,0.00,VWS V14.01,2013-02-02 11:53:00,
2013-02-02 06:58:00,14.9,-0.8,29.74,WSW,248,3.8,3.8,49,0.00,,,0.00,VWS V14.01,2013-02-02 11:58:00,
2013-02-02 07:03:00,14.9,-0.8,29.74,SSW,202,2.9,2.9,49,0.00,,,0.00,VWS V14.01,2013-02-02 12:03:00,
2013-02-02 07:08:00,14.9,-0.8,29.74,WSW,248,3.1,3.1,49,0.00,,,0.00,VWS V14.01,2013-02-02 12:08:00,
2013-02-02 07:14:00,14.9,-0.8,29.74,SW,225,2.0,2.0,49,0.00,,,0.00,VWS V14.01,2013-02-02 12:14:00,
2013-02-02 07:19:00,15.1,-0.6,29.74,WSW,248,2.0,2.0,49,0.00,,,0.00,VWS V14.01,2013-02-02 12:19:00,
2013-02-02 07:24:00,15.1,-0.6,29.74,West,270,1.6,1.6,49,0.00,,,0.00,VWS V14.01,2013-02-02 12:24:00,
2013-02-02 07:29:00,15.1,-0.6,29.74,WSW,248,6.0,6.0,49,0.00,,,0.00,VWS V14.01,2013-02-02 12:29:00,
2013-02-02 07:34:00,15.1,-0.6,29.74,SSW,202,3.4,3.4,49,0.00,,,0.00,VWS V14.01,2013-02-02 12:34:00,
2013-02-02 07:39:00,15.1,-0.6,29.74,WSW,248,3.6,3.6,49,0.00,,,0.00,VWS V14.01,2013-02-02 12:39:00,
2013-02-02 07:44:00,15.3,-0.5,29.74,WNW,292,1.6,1.6,49,0.00,,,0.00,VWS V14.01,2013-02-02 12:44:00,
2013-02-02 07:49:00,15.3,-0.5,29.71,WSW,248,3.6,3.6,49,0.00,,,0.00,VWS V14.01,2013-02-02 12:49:00,
2013-02-02 07:54:00,15.3,-0.5,29.71,WSW,248,5.8,5.8,49,0.00,,,0.00,VWS V14.01,2013-02-02 12:54:00,
2013-02-02 07:59:00,15.4,-0.3,29.71,WSW,248,7.2,7.2,49,0.00,,,0.00,VWS V14.01,2013-02-02 12:59:00,
2013-02-02 08:04:00,15.4,-0.3,29.74,WSW,248,5.6,5.6,49,0.00,,,0.00,VWS V14.01,2013-02-02 13:04:00,
2013-02-02 08:10:00,15.6,-0.1,29.74,SSW,202,3.4,3.4,49,0.00,,,0.00,VWS V14.01,2013-02-02 13:10:00,
2013-02-02 08:15:00,15.8,0.0,29.74,SSW,202,2.7,2.7,49,0.00,,,0.00,VWS V14.01,2013-02-02 13:15:00,
2013-02-02 08:20:00,16.2,0.4,29.74,SW,225,4.7,4.7,49,0.00,,,0.00,VWS V14.01,2013-02-02 13:20:00,
2013-02-02 08:25:00,16.5,0.7,29.74,WSW,248,1.6,1.6,49,0.00,,,0.00,VWS V14.01,2013-02-02 13:25:00,
2013-02-02 08:30:00,16.9,1.0,29.74,SW,225,4.9,4.9,49,0.00,,,0.00,VWS V14.01,2013-02-02 13:30:00,
2013-02-02 08:35:00,17.1,1.2,29.74,WSW,248,6.0,6.0,49,0.00,,,0.00,VWS V14.01,2013-02-02 13:35:00,
2013-02-02 08:40:00,17.2,0.9,29.74,WSW,248,2.2,2.2,48,0.00,,,0.00,VWS V14.01,2013-02-02 13:40:00,
2013-02-02 08:45:00,17.4,1.1,29.74,WSW,248,8.1,8.1,48,0.00,,,0.00,VWS V14.01,2013-02-02 13:45:00,
2013-02-02 08:50:00,17.6,0.8,29.74,WSW,248,9.6,9.6,47,0.00,,,0.00,VWS V14.01,2013-02-02 13:50:00,
2013-02-02 08:55:00,17.4,0.2,29.74,West,270,7.8,7.8,46,0.00,,,0.00,VWS V14.01,2013-02-02 13:55:00,
2013-02-02 09:00:00,18.1,1.3,29.74,WSW,248,7.6,7.6,47,0.00,,,0.00,VWS V14.01,2013-02-02 14:00:00,
2013-02-02 09:05:00,18.3,1.0,29.74,NNW,338,8.5,8.5,46,0.00,,,0.00,VWS V14.01,2013-02-02 14:05:00,
2013-02-02 09:10:00,18.1,0.9,29.74,WNW,292,12.3,12.3,46,0.00,,,0.00,VWS V14.01,2013-02-02 14:10:00,
2013-02-02 09:15:00,18.3,1.0,29.74,WSW,248,8.1,8.1,46,0.00,,,0.00,VWS V14.01,2013-02-02 14:15:00,
2013-02-02 09:21:00,18.3,0.6,29.71,NW,315,5.6,5.6,45,0.00,,,0.00,VWS V14.01,2013-02-02 14:21:00,
2013-02-02 09:26:00,18.3,0.6,29.71,WNW,292,5.6,5.6,45,0.00,,,0.00,VWS V14.01,2013-02-02 14:26:00,
2013-02-02 09:31:00,18.5,0.7,29.71,WNW,292,13.0,13.0,45,0.00,,,0.00,VWS V14.01,2013-02-02 14:31:00,
2013-02-02 09:36:00,18.7,0.9,29.71,WNW,292,5.8,5.8,45,0.00,,,0.00,VWS V14.01,2013-02-02 14:36:00,
2013-02-02 09:41:00,19.0,1.7,29.71,WNW,292,8.1,8.1,46,0.00,,,0.00,VWS V14.01,2013-02-02 14:41:00,
2013-02-02 09:46:00,19.0,1.7,29.71,WSW,248,5.4,5.4,46,0.00,,,0.00,VWS V14.01,2013-02-02 14:46:00,
2013-02-02 09:51:00,19.2,1.8,29.71,WSW,248,2.9,2.9,46,0.00,,,0.00,VWS V14.01,2013-02-02 14:51:00,
2013-02-02 09:56:00,19.6,2.2,29.71,SSW,202,2.5,2.5,46,0.00,,,0.00,VWS V14.01,2013-02-02 14:56:00,
2013-02-02 10:01:00,19.8,2.3,29.71,South,180,5.4,5.4,46,0.00,,,0.00,VWS V14.01,2013-02-02 15:01:00,
2013-02-02 10:06:00,19.9,2.5,29.71,SSW,202,3.1,3.1,46,0.00,,,0.00,VWS V14.01,2013-02-02 15:06:00,
2013-02-02 10:11:00,19.9,2.5,29.71,South,180,4.0,4.0,46,0.00,,,0.00,VWS V14.01,2013-02-02 15:11:00,
2013-02-02 10:16:00,20.3,2.8,29.68,SW,225,4.7,4.7,46,0.00,,,0.00,VWS V14.01,2013-02-02 15:16:00,
2013-02-02 10:21:00,20.3,2.8,29.68,SSW,202,6.0,6.0,46,0.00,,,0.00,VWS V14.01,2013-02-02 15:21:00,
2013-02-02 10:26:00,20.1,2.2,29.68,WSW,248,10.5,10.5,45,0.00,,,0.00,VWS V14.01,2013-02-02 15:26:00,
2013-02-02 10:31:00,19.9,2.0,29.68,WSW,248,7.6,7.6,45,0.00,,,0.00,VWS V14.01,2013-02-02 15:31:00,
2013-02-02 10:36:00,19.9,2.0,29.68,WSW,248,6.5,6.5,45,0.00,,,0.00,VWS V14.01,2013-02-02 15:36:00,
2013-02-02 10:41:00,20.3,2.4,29.68,SW,225,8.1,8.1,45,0.00,,,0.00,VWS V14.01,2013-02-02 15:41:00,
2013-02-02 10:46:00,20.3,2.4,29.68,WSW,248,11.0,11.0,45,0.00,,,0.00,VWS V14.01,2013-02-02 15:46:00,
2013-02-02 10:52:00,20.3,2.4,29.68,WSW,248,6.5,6.5,45,0.00,,,0.00,VWS V14.01,2013-02-02 15:52:00,
2013-02-02 10:57:00,20.5,2.5,29.68,WSW,248,4.3,4.3,45,0.00,,,0.00,VWS V14.01,2013-02-02 15:57:00,
2013-02-02 11:02:00,20.5,2.5,29.68,SSW,202,7.6,7.6,45,0.00,,,0.00,VWS V14.01,2013-02-02 16:02:00,
2013-02-02 11:07:00,20.3,2.4,29.68,WSW,248,5.4,5.4,45,0.00,,,0.00,VWS V14.01,2013-02-02 16:07:00,
2013-02-02 11:12:00,20.3,1.9,29.68,WSW,248,6.3,6.3,44,0.00,,,0.00,VWS V14.01,2013-02-02 16:12:00,
2013-02-02 11:17:00,20.1,1.7,29.65,WSW,248,14.8,14.8,44,0.00,,,0.00,VWS V14.01,2013-02-02 16:17:00,
2013-02-02 11:22:00,20.1,1.7,29.65,WSW,248,5.6,5.6,44,0.00,,,0.00,VWS V14.01,2013-02-02 16:22:00,
2013-02-02 11:27:00,20.1,1.7,29.65,West,270,8.1,8.1,44,0.00,,,0.00,VWS V14.01,2013-02-02 16:27:00,
2013-02-02 11:32:00,20.3,1.9,29.68,WSW,248,5.4,5.4,44,0.00,,,0.00,VWS V14.01,2013-02-02 16:32:00,
2013-02-02 11:37:00,20.3,1.9,29.68,WSW,248,7.2,7.2,44,0.00,,,0.00,VWS V14.01,2013-02-02 16:37:00,
2013-02-02 11:42:00,20.3,1.9,29.68,WSW,248,6.3,6.3,44,0.00,,,0.00,VWS V14.01,2013-02-02 16:42:00,
2013-02-02 11:47:00,20.3,1.9,29.68,WSW,248,4.9,4.9,44,0.00,,,0.00,VWS V14.01,2013-02-02 16:47:00,
2013-02-02 11:52:00,20.3,1.9,29.68,WSW,248,6.3,6.3,44,0.00,,,0.00,VWS V14.01,2013-02-02 16:52:00,
2013-02-02 11:57:00,20.3,1.9,29.68,West,270,3.8,3.8,44,0.00,,,0.00,VWS V14.01,2013-02-02 16:57:00,
2013-02-02 12:02:00,20.5,2.0,29.62,SSW,202,7.6,7.6,44,0.00,,,0.00,VWS V14.01,2013-02-02 17:02:00,
2013-02-02 12:07:00,20.7,2.7,29.62,SSE,158,4.3,4.3,45,0.00,,,0.00,VWS V14.01,2013-02-02 17:07:00,
2013-02-02 12:12:00,21.0,3.0,29.62,SW,225,2.0,2.0,45,0.00,,,0.00,VWS V14.01,2013-02-02 17:12:00,
2013-02-02 12:17:00,21.4,3.3,29.62,South,180,2.7,2.7,45,0.00,,,0.00,VWS V14.01,2013-02-02 17:17:00,
2013-02-02 12:22:00,21.9,3.8,29.62,SSW,202,7.6,7.6,45,0.00,,,0.00,VWS V14.01,2013-02-02 17:22:00,
2013-02-02 12:28:00,22.1,4.0,29.62,SSE,158,7.8,7.8,45,0.00,,,0.00,VWS V14.01,2013-02-02 17:28:00,
2013-02-02 12:33:00,22.3,4.2,29.62,South,180,4.9,4.9,45,0.00,,,0.00,VWS V14.01,2013-02-02 17:33:00,
2013-02-02 12:38:00,22.1,4.0,29.62,SSW,202,2.9,2.9,45,0.00,,,0.00,VWS V14.01,2013-02-02 17:38:00,
2013-02-02 12:43:00,22.3,4.2,29.62,South,180,7.6,7.6,45,0.00,,,0.00,VWS V14.01,2013-02-02 17:43:00,
2013-02-02 12:48:00,22.3,4.2,29.62,WSW,248,4.0,4.0,45,0.00,,,0.00,VWS V14.01,2013-02-02 17:48:00,
2013-02-02 12:53:00,22.5,4.3,29.62,WSW,248,5.6,5.6,45,0.00,,,0.00,VWS V14.01,2013-02-02 17:53:00,
2013-02-02 12:58:00,22.8,4.7,29.62,SSE,158,2.0,2.0,45,0.00,,,0.00,VWS V14.01,2013-02-02 17:58:00,
2013-02-02 13:03:00,23.0,4.8,29.62,SSE,158,6.0,6.0,45,0.00,,,0.00,VWS V14.01,2013-02-02 18:03:00,
2013-02-02 13:08:00,23.4,4.7,29.62,WSW,248,6.3,6.3,44,0.00,,,0.00,VWS V14.01,2013-02-02 18:08:00,
2013-02-02 13:13:00,23.5,4.8,29.62,South,180,8.1,8.1,44,0.00,,,0.00,VWS V14.01,2013-02-02 18:13:00,
2013-02-02 13:18:00,23.9,5.2,29.59,SSW,202,6.5,6.5,44,0.00,,,0.00,VWS V14.01,2013-02-02 18:18:00,
2013-02-02 13:23:00,23.7,5.0,29.59,SSW,202,3.1,3.1,44,0.00,,,0.00,VWS V14.01,2013-02-02 18:23:00,
2013-02-02 13:28:00,23.9,5.2,29.59,SSW,202,6.5,6.5,44,0.00,,,0.00,VWS V14.01,2013-02-02 18:28:00,
2013-02-02 13:33:00,24.3,5.5,29.59,South,180,3.1,3.1,44,0.00,,,0.00,VWS V14.01,2013-02-02 18:33:00,
2013-02-02 13:38:00,24.4,5.7,29.59,SSE,158,8.7,8.7,44,0.00,,,0.00,VWS V14.01,2013-02-02 18:38:00,
2013-02-02 13:43:00,24.4,5.7,29.59,SSW,202,7.4,7.4,44,0.00,,,0.00,VWS V14.01,2013-02-02 18:43:00,
2013-02-02 13:48:00,24.6,5.8,29.53,South,180,3.1,3.1,44,0.00,,,0.00,VWS V14.01,2013-02-02 18:48:00,
2013-02-02 13:53:00,24.8,6.0,29.53,SSW,202,6.5,6.5,44,0.00,,,0.00,VWS V14.01,2013-02-02 18:53:00,
2013-02-02 13:58:00,24.6,5.3,29.53,South,180,4.3,4.3,43,0.00,,,0.00,VWS V14.01,2013-02-02 18:58:00,
2013-02-02 14:03:00,25.2,5.8,29.56,SW,225,3.6,3.6,43,0.00,,,0.00,VWS V14.01,2013-02-02 19:03:00,
2013-02-02 14:08:00,25.5,6.2,29.56,South,180,8.1,8.1,43,0.00,,,0.00,VWS V14.01,2013-02-02 19:08:00,
2013-02-02 14:14:00,25.3,6.0,29.56,WSW,248,8.1,8.1,43,0.00,,,0.00,VWS V14.01,2013-02-02 19:14:00,
2013-02-02 14:19:00,25.0,5.7,29.56,SSE,158,3.4,3.4,43,0.00,,,0.00,VWS V14.01,2013-02-02 19:19:00,
2013-02-02 14:24:00,25.3,6.0,29.56,South,180,9.8,9.8,43,0.00,,,0.00,VWS V14.01,2013-02-02 19:24:00,
2013-02-02 14:29:00,25.7,6.3,29.56,South,180,5.8,5.8,43,0.00,,,0.00,VWS V14.01,2013-02-02 19:29:00,
2013-02-02 14:34:00,26.1,7.2,29.56,SSW,202,3.6,3.6,44,0.00,,,0.00,VWS V14.01,2013-02-02 19:34:00,
2013-02-02 14:39:00,26.1,7.2,29.56,South,180,4.7,4.7,44,0.00,,,0.00,VWS V14.01,2013-02-02 19:39:00,
2013-02-02 14:44:00,26.1,7.2,29.56,SSE,158,8.5,8.5,44,0.00,,,0.00,VWS V14.01,2013-02-02 19:44:00,
2013-02-02 14:49:00,25.9,6.5,29.56,SSE,158,6.0,6.0,43,0.00,,,0.00,VWS V14.01,2013-02-02 19:49:00,
2013-02-02 14:54:00,26.1,6.6,29.56,West,270,4.3,4.3,43,0.00,,,0.00,VWS V14.01,2013-02-02 19:54:00,
2013-02-02 14:59:00,26.1,6.6,29.56,South,180,6.9,6.9,43,0.00,,,0.00,VWS V14.01,2013-02-02 19:59:00,
2013-02-02 15:04:00,25.7,6.3,29.56,SSW,202,9.2,9.2,43,0.00,,,0.00,VWS V14.01,2013-02-02 20:04:00,
2013-02-02 15:09:00,25.7,6.3,29.56,South,180,5.4,5.4,43,0.00,,,0.00,VWS V14.01,2013-02-02 20:09:00,
2013-02-02 15:14:00,25.9,7.0,29.56,SSW,202,9.2,9.2,44,0.00,,,0.00,VWS V14.01,2013-02-02 20:14:00,
2013-02-02 15:19:00,25.9,7.0,29.53,SSW,202,3.4,3.4,44,0.00,,,0.00,VWS V14.01,2013-02-02 20:19:00,
2013-02-02 15:24:00,25.9,7.0,29.53,South,180,6.3,6.3,44,0.00,,,0.00,VWS V14.01,2013-02-02 20:24:00,
2013-02-02 15:29:00,25.9,7.0,29.53,SSW,202,5.8,5.8,44,0.00,,,0.00,VWS V14.01,2013-02-02 20:29:00,
2013-02-02 15:34:00,26.1,7.2,29.53,SSW,202,2.9,2.9,44,0.00,,,0.00,VWS V14.01,2013-02-02 20:34:00,
2013-02-02 15:39:00,26.1,6.6,29.53,West,270,11.4,11.4,43,0.00,,,0.00,VWS V14.01,2013-02-02 20:39:00,
2013-02-02 15:44:00,26.1,6.6,29.53,SSW,202,4.9,4.9,43,0.00,,,0.00,VWS V14.01,2013-02-02 20:44:00,
2013-02-02 15:49:00,25.9,6.5,29.53,South,180,6.0,6.0,43,0.00,,,0.00,VWS V14.01,2013-02-02 20:49:00,
2013-02-02 15:54:00,25.9,6.5,29.53,SSW,202,3.4,3.4,43,0.00,,,0.00,VWS V14.01,2013-02-02 20:54:00,
2013-02-02 15:59:00,26.1,7.2,29.53,SSE,158,7.8,7.8,44,0.00,,,0.00,VWS V14.01,2013-02-02 20:59:00,
2013-02-02 16:04:00,26.1,7.2,29.50,SSW,202,4.9,4.9,44,0.00,,,0.00,VWS V14.01,2013-02-02 21:04:00,
2013-02-02 16:09:00,26.1,7.2,29.50,South,180,7.6,7.6,44,0.00,,,0.00,VWS V14.01,2013-02-02 21:09:00,
2013-02-02 16:14:00,25.9,6.5,29.50,SSW,202,8.7,8.7,43,0.00,,,0.00,VWS V14.01,2013-02-02 21:14:00,
2013-02-02 16:20:00,25.9,6.5,29.50,South,180,12.5,12.5,43,0.00,,,0.00,VWS V14.01,2013-02-02 21:20:00,
2013-02-02 16:25:00,25.9,6.5,29.50,SSW,202,4.3,4.3,43,0.00,,,0.00,VWS V14.01,2013-02-02 21:25:00,
2013-02-02 16:30:00,25.9,6.5,29.50,SSW,202,10.7,10.7,43,0.00,,,0.00,VWS V14.01,2013-02-02 21:30:00,
2013-02-02 16:35:00,25.7,6.3,29.50,SSE,158,3.1,3.1,43,0.00,,,0.00,VWS V14.01,2013-02-02 21:35:00,
2013-02-02 16:40:00,25.9,7.0,29.50,South,180,4.5,4.5,44,0.00,,,0.00,VWS V14.01,2013-02-02 21:40:00,
2013-02-02 16:45:00,25.9,7.0,29.50,South,180,3.1,3.1,44,0.00,,,0.00,VWS V14.01,2013-02-02 21:45:00,
2013-02-02 16:50:00,25.9,7.0,29.50,SSE,158,6.7,6.7,44,0.00,,,0.00,VWS V14.01,2013-02-02 21:50:00,
2013-02-02 16:55:00,25.5,6.7,29.50,SSE,158,10.5,10.5,44,0.00,,,0.00,VWS V14.01,2013-02-02 21:55:00,
2013-02-02 17:00:00,25.3,6.5,29.50,SSE,158,3.6,3.6,44,0.00,,,0.00,VWS V14.01,2013-02-02 22:00:00,
2013-02-02 17:05:00,25.3,7.0,29.50,SE,135,6.0,6.0,45,0.00,,,0.00,VWS V14.01,2013-02-02 22:05:00,
2013-02-02 17:10:00,25.3,6.5,29.50,South,180,3.8,3.8,44,0.00,,,0.00,VWS V14.01,2013-02-02 22:10:00,
2013-02-02 17:15:00,25.2,6.3,29.50,SSW,202,4.9,4.9,44,0.00,,,0.00,VWS V14.01,2013-02-02 22:15:00,
2013-02-02 17:20:00,25.2,6.3,29.50,SSW,202,3.4,3.4,44,0.00,,,0.00,VWS V14.01,2013-02-02 22:20:00,
2013-02-02 17:25:00,25.2,6.3,29.50,SSW,202,6.3,6.3,44,0.00,,,0.00,VWS V14.01,2013-02-02 22:25:00,
2013-02-02 17:30:00,25.2,6.3,29.50,South,180,6.0,6.0,44,0.00,,,0.00,VWS V14.01,2013-02-02 22:30:00,
2013-02-02 17:35:00,25.2,6.3,29.50,SE,135,4.9,4.9,44,0.00,,,0.00,VWS V14.01,2013-02-02 22:35:00,
2013-02-02 17:40:00,25.2,6.3,29.50,SW,225,2.9,2.9,44,0.00,,,0.00,VWS V14.01,2013-02-02 22:40:00,
2013-02-02 17:45:00,25.0,6.2,29.50,SSW,202,8.7,8.7,44,0.00,,,0.00,VWS V14.01,2013-02-02 22:45:00,
2013-02-02 17:50:00,25.0,6.2,29.50,SSW,202,3.1,3.1,44,0.00,,,0.00,VWS V14.01,2013-02-02 22:50:00,
2013-02-02 17:55:00,25.0,6.2,29.50,SE,135,3.4,3.4,44,0.00,,,0.00,VWS V14.01,2013-02-02 22:55:00,
2013-02-02 18:00:00,25.0,6.2,29.50,WSW,248,3.8,3.8,44,0.00,,,0.00,VWS V14.01,2013-02-02 23:00:00,
2013-02-02 18:05:00,25.2,6.3,29.50,SSW,202,4.5,4.5,44,0.00,,,0.00,VWS V14.01,2013-02-02 23:05:00,
2013-02-02 18:11:00,25.2,6.3,29.50,SSW,202,4.9,4.9,44,0.00,,,0.00,VWS V14.01,2013-02-02 23:11:00,
2013-02-02 18:16:00,25.2,6.3,29.50,SSE,158,4.3,4.3,44,0.00,,,0.00,VWS V14.01,2013-02-02 23:16:00,
2013-02-02 18:21:00,25.2,6.3,29.50,SSW,202,3.4,3.4,44,0.00,,,0.00,VWS V14.01,2013-02-02 23:21:00,
2013-02-02 18:26:00,25.2,6.3,29.50,SSW,202,2.0,2.0,44,0.00,,,0.00,VWS V14.01,2013-02-02 23:26:00,
2013-02-02 18:31:00,25.2,6.3,29.47,South,180,3.6,3.6,44,0.00,,,0.00,VWS V14.01,2013-02-02 23:31:00,
2013-02-02 18:36:00,25.2,6.3,29.47,South,180,6.0,6.0,44,0.00,,,0.00,VWS V14.01,2013-02-02 23:36:00,
2013-02-02 18:41:00,25.2,6.3,29.47,South,180,4.9,4.9,44,0.00,,,0.00,VWS V14.01,2013-02-02 23:41:00,
2013-02-02 18:46:00,25.2,6.3,29.50,South,180,4.9,4.9,44,0.00,,,0.00,VWS V14.01,2013-02-02 23:46:00,
2013-02-02 18:51:00,25.2,6.8,29.50,SSW,202,7.2,7.2,45,0.00,,,0.00,VWS V14.01,2013-02-02 23:51:00,
2013-02-02 18:57:00,24.8,6.5,29.50,SSW,202,3.8,3.8,45,0.00,,,0.00,VWS V14.01,2013-02-02 23:57:00,
2013-02-02 19:02:00,24.8,7.0,29.50,SSW,202,6.0,6.0,46,0.00,,,0.00,VWS V14.01,2013-02-03 00:02:00,
2013-02-02 19:07:00,24.8,7.4,29.50,SSW,202,6.0,6.0,47,0.00,,,0.00,VWS V14.01,2013-02-03 00:07:00,
2013-02-02 19:12:00,24.6,7.7,29.50,South,180,5.6,5.6,48,0.00,,,0.00,VWS V14.01,2013-02-03 00:12:00,
2013-02-02 19:17:00,24.6,8.2,29.50,ESE,112,4.0,4.0,49,0.00,,,0.00,VWS V14.01,2013-02-03 00:17:00,
2013-02-02 19:22:00,24.4,8.5,29.50,SSW,202,3.1,3.1,50,0.00,,,0.00,VWS V14.01,2013-02-03 00:22:00,
2013-02-02 19:27:00,24.4,8.9,29.50,SSW,202,6.3,6.3,51,0.00,,,0.00,VWS V14.01,2013-02-03 00:27:00,
2013-02-02 19:32:00,24.4,9.4,29.50,SSW,202,3.4,3.4,52,0.00,,,0.00,VWS V14.01,2013-02-03 00:32:00,
2013-02-02 19:37:00,24.3,9.2,29.50,SSW,202,3.6,3.6,52,0.00,,,0.00,VWS V14.01,2013-02-03 00:37:00,
2013-02-02 19:42:00,24.3,9.2,29.50,SSW,202,6.5,6.5,52,0.00,,,0.00,VWS V14.01,2013-02-03 00:42:00,
2013-02-02 19:47:00,24.3,9.6,29.50,SSW,202,5.4,5.4,53,0.00,,,0.00,VWS V14.01,2013-02-03 00:47:00,
2013-02-02 19:52:00,24.1,9.4,29.50,SSE,158,5.8,5.8,53,0.00,,,0.00,VWS V14.01,2013-02-03 00:52:00,
2013-02-02 19:57:00,24.1,9.9,29.50,SSW,202,4.0,4.0,54,0.00,,,0.00,VWS V14.01,2013-02-03 00:57:00,
2013-02-02 20:03:00,24.1,9.9,29.50,SSW,202,5.8,5.8,54,0.00,,,0.00,VWS V14.01,2013-02-03 01:03:00,
2013-02-02 20:08:00,24.3,10.0,29.50,SW,225,4.9,4.9,54,0.00,,,0.00,VWS V14.01,2013-02-03 01:08:00,
2013-02-02 20:13:00,24.3,10.0,29.50,SSW,202,5.8,5.8,54,0.00,,,0.00,VWS V14.01,2013-02-03 01:13:00,
2013-02-02 20:18:00,24.3,10.4,29.47,South,180,5.4,5.4,55,0.00,,,0.00,VWS V14.01,2013-02-03 01:18:00,
2013-02-02 20:23:00,24.1,10.3,29.47,SSW,202,3.8,3.8,55,0.00,,,0.00,VWS V14.01,2013-02-03 01:23:00,
2013-02-02 20:28:00,24.1,10.3,29.47,SSW,202,2.9,2.9,55,0.00,,,0.00,VWS V14.01,2013-02-03 01:28:00,
2013-02-02 20:33:00,24.1,10.7,29.50,SSW,202,4.9,4.9,56,0.00,,,0.00,VWS V14.01,2013-02-03 01:33:00,
2013-02-02 20:38:00,24.1,10.7,29.50,SSW,202,3.8,3.8,56,0.00,,,0.00,VWS V14.01,2013-02-03 01:38:00,
2013-02-02 20:43:00,24.1,10.7,29.50,SSE,158,0.9,0.9,56,0.00,,,0.00,VWS V14.01,2013-02-03 01:43:00,
2013-02-02 20:48:00,24.1,10.7,29.53,SW,225,1.6,1.6,56,0.00,,,0.00,VWS V14.01,2013-02-03 01:48:00,
2013-02-02 20:53:00,23.9,10.9,29.53,SSW,202,3.1,3.1,57,0.00,,,0.00,VWS V14.01,2013-02-03 01:53:00,
2013-02-02 20:58:00,23.9,10.9,29.53,South,180,2.9,2.9,57,0.00,,,0.00,VWS V14.01,2013-02-03 01:58:00,
2013-02-02 21:03:00,23.9,11.3,29.50,SSW,202,2.5,2.5,58,0.00,,,0.00,VWS V14.01,2013-02-03 02:03:00,
2013-02-02 21:08:00,23.7,11.1,29.50,South,180,2.5,2.5,58,0.00,,,0.00,VWS V14.01,2013-02-03 02:08:00,
2013-02-02 21:13:00,23.7,11.1,29.50,South,180,1.6,1.6,58,0.00,,,0.00,VWS V14.01,2013-02-03 02:13:00,
2013-02-02 21:18:00,23.7,11.1,29.47,South,180,1.1,1.1,58,0.00,,,0.00,VWS V14.01,2013-02-03 02:18:00,
2013-02-02 21:23:00,23.7,11.5,29.47,South,180,5.4,5.4,59,0.00,,,0.00,VWS V14.01,2013-02-03 02:23:00,
2013-02-02 21:28:00,23.7,11.5,29.47,SE,135,0.9,0.9,59,0.00,,,0.00,VWS V14.01,2013-02-03 02:28:00,
2013-02-02 21:33:00,23.9,11.7,29.50,SSE,158,2.0,2.0,59,0.00,,,0.00,VWS V14.01,2013-02-03 02:33:00,
2013-02-02 21:39:00,23.9,12.1,29.50,SE,135,1.6,1.6,60,0.00,,,0.00,VWS V14.01,2013-02-03 02:39:00,
2013-02-02 21:44:00,23.9,12.1,29.50,South,180,1.6,1.6,60,0.00,,,0.00,VWS V14.01,2013-02-03 02:44:00,
2013-02-02 21:49:00,23.9,12.1,29.50,SSE,158,2.2,2.2,60,0.00,,,0.00,VWS V14.01,2013-02-03 02:49:00,
2013-02-02 21:54:00,23.9,12.1,29.50,SSE,158,1.3,1.3,60,0.00,,,0.00,VWS V14.01,2013-02-03 02:54:00,
2013-02-02 21:59:00,23.9,12.4,29.50,SSE,158,2.9,2.9,61,0.00,,,0.00,VWS V14.01,2013-02-03 02:59:00,
2013-02-02 22:04:00,23.7,12.2,29.50,SSE,158,1.3,1.3,61,0.00,,,0.00,VWS V14.01,2013-02-03 03:04:00,
2013-02-02 22:09:00,23.7,12.6,29.50,SSE,158,1.3,1.3,62,0.00,,,0.00,VWS V14.01,2013-02-03 03:09:00,
2013-02-02 22:14:00,23.7,12.6,29.50,SSE,158,1.3,1.3,62,0.00,,,0.00,VWS V14.01,2013-02-03 03:14:00,
2013-02-02 22:19:00,23.7,12.6,29.47,South,180,2.7,2.7,62,0.00,,,0.00,VWS V14.01,2013-02-03 03:19:00,
2013-02-02 22:24:00,23.5,12.4,29.47,South,180,1.3,1.3,62,0.00,,,0.00,VWS V14.01,2013-02-03 03:24:00,
2013-02-02 22:29:00,23.7,13.0,29.47,SE,135,0.0,0.0,63,0.00,,,0.00,VWS V14.01,2013-02-03 03:29:00,
2013-02-02 22:34:00,23.7,13.0,29.50,SSE,158,3.4,3.4,63,0.00,,,0.00,VWS V14.01,2013-02-03 03:34:00,
2013-02-02 22:39:00,23.7,13.0,29.50,SSW,202,1.3,1.3,63,0.00,,,0.00,VWS V14.01,2013-02-03 03:39:00,
2013-02-02 22:44:00,23.7,13.3,29.50,South,180,1.3,1.3,64,0.00,,,0.00,VWS V14.01,2013-02-03 03:44:00,
2013-02-02 22:49:00,23.7,13.3,29.47,SSW,202,0.0,0.0,64,0.00,,,0.00,VWS V14.01,2013-02-03 03:49:00,
2013-02-02 22:54:00,23.7,13.3,29.47,South,180,0.0,0.0,64,0.00,,,0.00,VWS V14.01,2013-02-03 03:54:00,
2013-02-02 22:59:00,23.7,13.3,29.47,South,180,0.0,0.0,64,0.00,,,0.00,VWS V14.01,2013-02-03 03:59:00,
2013-02-02 23:04:00,23.5,13.2,29.47,SSW,202,1.6,1.6,64,0.00,,,0.00,VWS V14.01,2013-02-03 04:04:00,
2013-02-02 23:09:00,23.5,13.2,29.47,SSE,158,0.0,0.0,64,0.00,,,0.00,VWS V14.01,2013-02-03 04:09:00,
2013-02-02 23:14:00,23.5,13.5,29.47,East,90,0.0,0.0,65,0.00,,,0.00,VWS V14.01,2013-02-03 04:14:00,
2013-02-02 23:19:00,23.5,13.5,29.47,NNE,22,1.1,1.1,65,0.00,,,0.00,VWS V14.01,2013-02-03 04:19:00,
2013-02-02 23:25:00,23.5,13.5,29.47,North,0,0.0,0.0,65,0.00,,,0.00,VWS V14.01,2013-02-03 04:25:00,
2013-02-02 23:30:00,23.5,13.2,29.47,North,0,0.0,0.0,64,0.00,,,0.00,VWS V14.01,2013-02-03 04:30:00,
2013-02-02 23:35:00,23.5,13.5,29.47,North,0,0.0,0.0,65,0.00,,,0.00,VWS V14.01,2013-02-03 04:35:00,
2013-02-02 23:40:00,23.7,13.7,29.47,North,0,0.0,0.0,65,0.00,,,0.00,VWS V14.01,2013-02-03 04:40:00,
2013-02-02 23:45:00,23.7,14.0,29.47,North,0,0.0,0.0,66,0.00,,,0.00,VWS V14.01,2013-02-03 04:45:00,
2013-02-02 23:50:00,23.7,14.0,29.47,NNE,22,0.0,0.0,66,0.00,,,0.00,VWS V14.01,2013-02-03 04:50:00,
2013-02-02 23:55:00,23.7,14.0,29.47,ENE,68,0.0,0.0,66,0.00,,,0.00,VWS V14.01,2013-02-03 04:55:00,